sensor_id;sensor_type;location;lat;lon;timestamp;P1;durP1;ratioP1;P2;durP2;ratioP2
1957;SDS011;979;51.076;13.748;2022-12-18T01:16:47;18.17;;;17.73;;
1957;SDS011;979;51.076;13.748;2022-12-18T02:51:22;19.05;;;18.55;;
1957;SDS011;979;51.076;13.748;2022-12-18T02:54:48;17.60;;;17.20;;
1957;SDS011;979;51.076;13.748;2022-12-18T02:57:57;16.97;;;16.57;;
1957;SDS011;979;51.076;13.748;2022-12-18T03:00:48;17.70;;;17.30;;
1957;SDS011;979;51.076;13.748;2022-12-18T03:10:21;17.10;;;16.70;;
1957;SDS011;979;51.076;13.748;2022-12-18T03:14:06;17.03;;;16.63;;
1957;SDS011;979;51.076;13.748;2022-12-18T03:16:37;16.23;;;15.83;;
1957;SDS011;979;51.076;13.748;2022-12-18T03:23:04;17.00;;;16.60;;
1957;SDS011;979;51.076;13.748;2022-12-18T03:26:01;17.10;;;16.70;;
1957;SDS011;979;51.076;13.748;2022-12-18T03:29:12;18.13;;;17.63;;
1957;SDS011;979;51.076;13.748;2022-12-18T03:32:06;17.60;;;17.20;;
1957;SDS011;979;51.076;13.748;2022-12-18T03:35:01;18.23;;;17.73;;
1957;SDS011;979;51.076;13.748;2022-12-18T03:37:52;16.60;;;16.20;;
1957;SDS011;979;51.076;13.748;2022-12-18T03:40:35;17.93;;;17.50;;
1957;SDS011;979;51.076;13.748;2022-12-18T03:43:20;17.43;;;17.03;;
1957;SDS011;979;51.076;13.748;2022-12-18T03:46:31;18.07;;;17.60;;
1957;SDS011;979;51.076;13.748;2022-12-18T03:49:20;17.33;;;16.93;;
1957;SDS011;979;51.076;13.748;2022-12-18T03:52:19;17.70;;;17.30;;
1957;SDS011;979;51.076;13.748;2022-12-18T03:55:19;17.37;;;16.97;;
1957;SDS011;979;51.076;13.748;2022-12-18T03:58:16;16.73;;;16.33;;
1957;SDS011;979;51.076;13.748;2022-12-18T04:01:12;17.57;;;17.17;;
1957;SDS011;979;51.076;13.748;2022-12-18T04:04:42;16.60;;;16.20;;
1957;SDS011;979;51.076;13.748;2022-12-18T04:07:41;16.70;;;16.30;;
1957;SDS011;979;51.076;13.748;2022-12-18T04:10:21;16.80;;;16.40;;
1957;SDS011;979;51.076;13.748;2022-12-18T04:24:19;17.35;;;16.95;;
1957;SDS011;979;51.076;13.748;2022-12-18T04:27:09;17.23;;;16.83;;
1957;SDS011;979;51.076;13.748;2022-12-18T04:29:43;17.90;;;17.50;;
1957;SDS011;979;51.076;13.748;2022-12-18T04:32:20;17.83;;;17.40;;
1957;SDS011;979;51.076;13.748;2022-12-18T04:40:45;17.40;;;17.00;;
1957;SDS011;979;51.076;13.748;2022-12-18T09:37:56;16.30;;;15.90;;
1957;SDS011;979;51.076;13.748;2022-12-18T09:41:03;18.00;;;17.43;;
1957;SDS011;979;51.076;13.748;2022-12-18T09:44:39;14.90;;;14.60;;
1957;SDS011;979;51.076;13.748;2022-12-18T09:49:14;14.87;;;14.57;;
1957;SDS011;979;51.076;13.748;2022-12-18T09:55:20;15.53;;;15.20;;
1957;SDS011;979;51.076;13.748;2022-12-18T09:59:09;17.20;;;16.80;;
1957;SDS011;979;51.076;13.748;2022-12-18T10:02:45;17.20;;;16.80;;
1957;SDS011;979;51.076;13.748;2022-12-18T10:31:26;16.70;;;16.30;;
1957;SDS011;979;51.076;13.748;2022-12-18T10:37:25;15.30;;;14.90;;
1957;SDS011;979;51.076;13.748;2022-12-18T12:12:06;16.13;;;15.73;;
1957;SDS011;979;51.076;13.748;2022-12-18T12:15:50;17.53;;;17.13;;
1957;SDS011;979;51.076;13.748;2022-12-18T12:19:32;21.50;;;19.90;;
1957;SDS011;979;51.076;13.748;2022-12-18T12:22:56;18.37;;;17.77;;
1957;SDS011;979;51.076;13.748;2022-12-18T12:25:59;16.40;;;15.90;;
1957;SDS011;979;51.076;13.748;2022-12-18T12:29:32;17.17;;;16.30;;
1957;SDS011;979;51.076;13.748;2022-12-18T12:33:05;19.53;;;18.70;;
1957;SDS011;979;51.076;13.748;2022-12-18T12:36:45;16.03;;;15.63;;
1957;SDS011;979;51.076;13.748;2022-12-18T12:40:12;23.47;;;22.00;;
1957;SDS011;979;51.076;13.748;2022-12-18T12:47:09;28.10;;;25.20;;
1957;SDS011;979;51.076;13.748;2022-12-18T12:50:05;28.87;;;25.83;;
1957;SDS011;979;51.076;13.748;2022-12-18T12:53:55;28.00;;;24.60;;
1957;SDS011;979;51.076;13.748;2022-12-18T12:57:01;26.33;;;23.70;;
1957;SDS011;979;51.076;13.748;2022-12-18T13:00:08;25.20;;;22.90;;
1957;SDS011;979;51.076;13.748;2022-12-18T13:03:35;28.73;;;25.93;;
1957;SDS011;979;51.076;13.748;2022-12-18T13:06:54;24.30;;;22.40;;
1957;SDS011;979;51.076;13.748;2022-12-18T13:10:31;24.83;;;22.90;;
1957;SDS011;979;51.076;13.748;2022-12-18T13:13:57;23.47;;;21.30;;
1957;SDS011;979;51.076;13.748;2022-12-18T13:24:28;24.17;;;22.10;;
1957;SDS011;979;51.076;13.748;2022-12-18T13:30:51;20.60;;;19.30;;
1957;SDS011;979;51.076;13.748;2022-12-18T13:44:24;20.07;;;18.73;;
1957;SDS011;979;51.076;13.748;2022-12-18T13:50:27;19.43;;;17.90;;
1957;SDS011;979;51.076;13.748;2022-12-18T13:56:05;19.97;;;18.50;;
1957;SDS011;979;51.076;13.748;2022-12-18T14:01:55;18.40;;;17.40;;
1957;SDS011;979;51.076;13.748;2022-12-18T14:04:37;22.37;;;20.13;;
1957;SDS011;979;51.076;13.748;2022-12-18T14:14:13;20.43;;;19.10;;
1957;SDS011;979;51.076;13.748;2022-12-18T14:17:40;18.63;;;17.77;;
1957;SDS011;979;51.076;13.748;2022-12-18T14:20:29;14.73;;;14.33;;
1957;SDS011;979;51.076;13.748;2022-12-18T14:32:39;15.00;;;14.70;;
1957;SDS011;979;51.076;13.748;2022-12-18T14:35:57;16.40;;;15.90;;
1957;SDS011;979;51.076;13.748;2022-12-18T14:38:34;15.60;;;15.10;;
1957;SDS011;979;51.076;13.748;2022-12-18T14:41:13;14.77;;;14.47;;
1957;SDS011;979;51.076;13.748;2022-12-18T14:44:04;16.20;;;15.80;;
1957;SDS011;979;51.076;13.748;2022-12-18T14:47:04;17.33;;;16.40;;
1957;SDS011;979;51.076;13.748;2022-12-18T14:54:02;17.43;;;16.47;;
1957;SDS011;979;51.076;13.748;2022-12-18T14:59:48;15.03;;;14.63;;
1957;SDS011;979;51.076;13.748;2022-12-18T15:02:34;15.00;;;14.57;;
1957;SDS011;979;51.076;13.748;2022-12-18T15:05:19;13.33;;;13.03;;
1957;SDS011;979;51.076;13.748;2022-12-18T15:14:52;18.63;;;17.93;;
1957;SDS011;979;51.076;13.748;2022-12-18T15:17:44;18.13;;;17.57;;
1957;SDS011;979;51.076;13.748;2022-12-18T15:20:33;14.60;;;14.30;;
1957;SDS011;979;51.076;13.748;2022-12-18T15:23:19;20.47;;;19.60;;
1957;SDS011;979;51.076;13.748;2022-12-18T15:26:08;17.80;;;17.30;;
1957;SDS011;979;51.076;13.748;2022-12-18T15:29:19;15.80;;;15.30;;
1957;SDS011;979;51.076;13.748;2022-12-18T15:32:35;14.20;;;13.90;;
1957;SDS011;979;51.076;13.748;2022-12-18T15:35:51;19.37;;;18.53;;
1957;SDS011;979;51.076;13.748;2022-12-18T15:38:47;16.00;;;15.60;;
1957;SDS011;979;51.076;13.748;2022-12-18T15:42:47;18.13;;;17.23;;
1957;SDS011;979;51.076;13.748;2022-12-18T15:46:18;13.93;;;13.63;;
1957;SDS011;979;51.076;13.748;2022-12-18T15:49:06;14.20;;;13.90;;
1957;SDS011;979;51.076;13.748;2022-12-18T15:51:56;17.60;;;16.83;;
1957;SDS011;979;51.076;13.748;2022-12-18T15:55:13;14.43;;;14.13;;
1957;SDS011;979;51.076;13.748;2022-12-18T15:58:14;15.73;;;15.33;;
1957;SDS011;979;51.076;13.748;2022-12-18T16:01:07;15.57;;;15.07;;
1957;SDS011;979;51.076;13.748;2022-12-18T16:08:57;19.07;;;18.37;;
1957;SDS011;979;51.076;13.748;2022-12-18T16:15:24;15.40;;;15.00;;
1957;SDS011;979;51.076;13.748;2022-12-18T16:18:33;18.90;;;17.30;;
1957;SDS011;979;51.076;13.748;2022-12-18T16:22:15;15.70;;;15.30;;
1957;SDS011;979;51.076;13.748;2022-12-18T16:26:16;16.50;;;15.90;;
